ENNM/OSY METAR and TAF weather

Enter ICAO airport designator
Station Type Date Time Source
ENNM METAR 2022/01/18 07:20 UTC NOAA

ENNM 180720Z 24012KT 9999 7000W RADZ FEW008 SCT012 BKN021 05/03 Q1013


Station Type Date Time Source
ENNM Decoded METAR 2022/01/18 07:20 UTC NOAA

Namsos Lufthavn, Norway (ENNM) 64-28N 011-35E 2M
Jan 18, 2022 - 02:20 AM EST / 2022.01.18 0720 UTC
Wind: from the WSW (240 degrees) at 14 MPH (12 KT):0
Visibility: greater than 7 mile(s):0
Sky conditions: mostly cloudy
Weather: rain, drizzle
Temperature: 41 F (5 C)
Dew Point: 37 F (3 C)
Relative Humidity: 86%
Pressure (altimeter): 29.91 in. Hg (1013 hPa)
ob: ENNM 180720Z 24012KT 9999 7000W RADZ FEW008 SCT012 BKN021 05/03 Q1013
cycle: 7

Station Type Date Time Source
ENNM TAF UTC NOAA

Error!

Example: see airport list